KEKO/EKO METAR and TAF weather

Enter ICAO airport designator
Station Type Date Time Source
KEKO METAR 2022/12/10 00:56 UTC NOAA

KEKO 100056Z AUTO 10003KT 10SM OVC100 M01/M05 A3004 RMK AO2 SLP202 T10111050


Station Type Date Time Source
KEKO Decoded METAR 2022/12/10 00:56 UTC NOAA

ELKO REGIONAL AIRPORT, NV, United States (KEKO) 40-50N 115-47W 1547M
Dec 09, 2022 - 07:56 PM EST / 2022.12.10 0056 UTC
Wind: from the E (100 degrees) at 3 MPH (3 KT):0
Visibility: 10 mile(s):0
Sky conditions: overcast
Temperature: 30.0 F (-1.1 C)
Dew Point: 23.0 F (-5.0 C)
Relative Humidity: 74%
Pressure (altimeter): 30.04 in. Hg (1017 hPa)
ob: KEKO 100056Z AUTO 10003KT 10SM OVC100 M01/M05 A3004 RMK AO2 SLP202 T10111050
cycle: 1

Station Type Date Time Source
KEKO TAF 2022/12/09 18:22 UTC NOAA

TAF KEKO 091720Z 0918/1018 25009KT P6SM VCSH SCT025 OVC040
FM092000 VRB06KT P6SM OVC100
FM100300 12008KT P6SM BKN070 OVC100
FM101700 17010G20KT P6SM OVC070

Example: see airport list